createdAt,value
2023-05-08T00:02:44.560Z,98086.97
2023-05-08T00:06:51.750Z,98088.38
2023-05-08T00:10:54.837Z,98099.63
2023-05-08T00:14:58.439Z,98094.69
2023-05-08T00:19:02.378Z,98100.75
2023-05-08T00:23:06.866Z,98107.91
2023-05-08T00:27:10.125Z,98096.97
2023-05-08T00:31:14.372Z,98100.81
2023-05-08T00:35:17.776Z,98103.84
2023-05-08T00:39:22.765Z,98101.25
2023-05-08T00:43:28.581Z,98104.44
2023-05-08T00:47:33.554Z,98106.25
2023-05-08T00:51:37.206Z,98106.41
2023-05-08T00:55:42.420Z,98104.75
2023-05-08T00:59:47.816Z,98109.28
2023-05-08T01:03:52.000Z,98106.69
2023-05-08T01:07:55.412Z,98102.31
2023-05-08T01:12:10.310Z,98107.38
2023-05-08T01:16:17.752Z,98108.03
2023-05-08T01:20:31.784Z,98112.66
2023-05-08T01:25:06.463Z,98116.78
2023-05-08T01:29:45.571Z,98130.09
2023-05-08T01:33:57.019Z,98132.69
2023-05-08T01:38:09.959Z,98142.34
2023-05-08T01:42:20.682Z,98137.91
2023-05-08T01:46:27.515Z,98143.53
2023-05-08T01:50:38.384Z,98147.31
2023-05-08T01:54:48.297Z,98155.41
2023-05-08T01:58:54.581Z,98158.38
2023-05-08T02:02:59.230Z,98146.03
2023-05-08T02:07:05.277Z,98149.69
2023-05-08T02:11:09.798Z,98148.56
2023-05-08T02:15:15.523Z,98148.13
2023-05-08T02:19:20.620Z,98150.59
2023-05-08T02:23:28.458Z,98152.78
2023-05-08T02:27:35.572Z,98148.34
2023-05-08T02:31:40.613Z,98144.13
2023-05-08T02:35:46.530Z,98156.84
2023-05-08T02:39:55.487Z,98154.09
2023-05-08T02:43:59.637Z,98154.09
2023-05-08T02:48:12.623Z,98157.41
2023-05-08T02:52:18.368Z,98148.44
2023-05-08T02:56:36.355Z,98162.28
2023-05-08T03:00:45.720Z,98163.41
2023-05-08T03:04:55.260Z,98154.09
2023-05-08T03:09:04.821Z,98154.41
2023-05-08T03:13:12.184Z,98161.53
2023-05-08T03:17:19.744Z,98160.88
2023-05-08T03:21:27.488Z,98159.06
2023-05-08T03:25:34.380Z,98158.56
2023-05-08T03:29:41.161Z,98155.97
2023-05-08T03:33:46.089Z,98165.41
2023-05-08T03:37:49.664Z,98163.78
2023-05-08T03:41:53.115Z,98175.16
2023-05-08T03:46:00.455Z,98182.00
2023-05-08T03:50:05.086Z,98175.31
2023-05-08T03:54:08.274Z,98178.56
2023-05-08T03:58:21.835Z,98175.81
2023-05-08T04:02:34.938Z,98174.06
2023-05-08T04:06:50.084Z,98182.38
2023-05-08T04:11:04.832Z,98206.50
2023-05-08T04:15:12.860Z,98195.78
2023-05-08T04:19:23.212Z,98196.31
2023-05-08T04:23:27.643Z,98205.63
2023-05-08T04:27:31.840Z,98216.56
2023-05-08T04:31:38.137Z,98219.03
2023-05-08T04:35:42.678Z,98238.94
2023-05-08T04:39:46.328Z,98240.84
2023-05-08T04:43:50.838Z,98250.16
2023-05-08T04:47:54.196Z,98253.75
2023-05-08T04:51:58.976Z,98263.88
2023-05-08T04:56:03.664Z,98260.84
2023-05-08T05:00:11.325Z,98270.00
2023-05-08T05:04:14.648Z,98265.00
2023-05-08T05:08:19.301Z,98260.97
2023-05-08T05:12:23.065Z,98266.06
2023-05-08T05:16:26.689Z,98274.25
2023-05-08T05:20:30.182Z,98274.78
2023-05-08T05:24:36.550Z,98277.91
2023-05-08T05:28:40.332Z,98278.91
2023-05-08T05:32:44.269Z,98277.78
2023-05-08T05:36:47.467Z,98284.63
2023-05-08T05:40:52.486Z,98279.94
2023-05-08T05:44:56.836Z,98288.13
2023-05-08T05:49:00.330Z,98291.91
2023-05-08T05:53:03.807Z,98293.28
2023-05-08T05:57:09.197Z,98302.44
2023-05-08T06:01:13.452Z,98301.47
2023-05-08T06:05:17.135Z,98303.19
2023-05-08T06:09:20.845Z,98306.53
2023-05-08T06:13:26.174Z,98296.03
2023-05-08T06:17:29.733Z,98296.78
2023-05-08T06:21:33.158Z,98306.84
2023-05-08T06:25:36.728Z,98304.78
2023-05-08T06:29:41.629Z,98311.25
2023-05-08T06:33:45.145Z,98307.56
2023-05-08T06:37:48.659Z,98310.72
2023-05-08T06:41:52.048Z,98308.31
2023-05-08T06:45:56.650Z,98318.00
2023-05-08T06:50:00.169Z,98321.47
2023-05-08T06:54:05.833Z,98321.00
2023-05-08T06:58:09.539Z,98323.16
2023-05-08T07:02:16.606Z,98328.91
2023-05-08T07:06:20.011Z,98334.03
2023-05-08T07:10:23.871Z,98327.72
2023-05-08T07:14:27.477Z,98337.03
2023-05-08T07:18:32.612Z,98338.56
2023-05-08T07:22:35.981Z,98337.59
2023-05-08T07:26:39.688Z,98339.25
2023-05-08T07:30:42.907Z,98340.22
2023-05-08T07:34:48.820Z,98341.88
2023-05-08T07:38:52.561Z,98343.19
2023-05-08T07:42:57.550Z,98347.47
2023-05-08T07:47:01.448Z,98341.06
2023-05-08T07:51:07.078Z,98342.88
2023-05-08T07:55:11.260Z,98344.19
2023-05-08T07:59:14.958Z,98350.25
2023-05-08T08:03:18.589Z,98337.81
2023-05-08T08:07:23.387Z,98333.75
2023-05-08T08:11:27.154Z,98344.53
2023-05-08T08:15:30.618Z,98331.75
2023-05-08T08:19:34.334Z,98338.41
2023-05-08T08:23:39.801Z,98336.91
2023-05-08T08:27:43.029Z,98330.34
2023-05-08T08:31:46.793Z,98343.91
2023-05-08T08:35:50.651Z,98339.44
2023-05-08T08:39:56.377Z,98342.38
2023-05-08T08:44:01.125Z,98349.38
2023-05-08T08:48:06.882Z,98339.53
2023-05-08T08:52:18.155Z,98344.84
2023-05-08T08:56:25.009Z,98336.09
2023-05-08T09:00:32.065Z,98338.41
2023-05-08T09:04:35.649Z,98337.16
2023-05-08T09:08:39.674Z,98333.19
2023-05-08T09:12:45.378Z,98335.44
2023-05-08T09:16:49.156Z,98335.53
2023-05-08T09:20:52.561Z,98340.06
2023-05-08T09:24:59.038Z,98337.09
2023-05-08T09:29:18.528Z,98326.09
2023-05-08T09:33:22.844Z,98326.69
2023-05-08T09:37:27.590Z,98310.44
2023-05-08T09:41:31.365Z,98307.41
2023-05-08T09:45:39.113Z,98299.97
2023-05-08T09:49:57.374Z,98304.31
2023-05-08T09:54:04.344Z,98298.59
2023-05-08T09:58:07.930Z,98304.75
2023-05-08T10:02:17.708Z,98296.50
2023-05-08T10:06:22.384Z,98288.03
2023-05-08T10:10:29.422Z,98285.59
2023-05-08T10:14:32.803Z,98284.97
2023-05-08T10:18:41.025Z,98282.94
2023-05-08T10:22:45.923Z,98285.81
2023-05-08T10:27:07.037Z,98275.19
2023-05-08T10:31:14.175Z,98268.63
2023-05-08T10:35:20.604Z,98268.56
2023-05-08T10:39:25.424Z,98270.59
2023-05-08T10:43:31.315Z,98274.66
2023-05-08T10:47:46.727Z,98262.63
2023-05-08T10:52:01.450Z,98258.41
2023-05-08T10:56:04.839Z,98253.91
2023-05-08T11:00:09.355Z,98247.75
2023-05-08T11:04:21.924Z,98245.41
2023-05-08T11:08:28.960Z,98243.13
2023-05-08T11:12:34.132Z,98233.38
2023-05-08T11:17:07.021Z,98227.72
2023-05-08T11:21:16.674Z,98226.94
2023-05-08T11:25:45.003Z,98210.75
2023-05-08T11:30:25.905Z,98216.53
2023-05-08T11:34:53.126Z,98206.56
2023-05-08T11:39:12.763Z,98209.56
2023-05-08T11:43:45.062Z,98206.56
2023-05-08T11:47:48.391Z,98191.44
2023-05-08T11:51:55.321Z,98189.78
2023-05-08T11:55:59.978Z,98184.94
2023-05-08T12:00:09.915Z,98174.19
2023-05-08T12:04:15.014Z,98183.38
2023-05-08T12:08:21.195Z,98182.03
2023-05-08T12:12:24.453Z,98183.91
2023-05-08T12:16:29.168Z,98174.38
2023-05-08T12:20:33.924Z,98180.03
2023-05-08T12:24:37.742Z,98176.97
2023-05-08T12:28:42.896Z,98171.13
2023-05-08T12:32:48.634Z,98177.41
2023-05-08T12:37:03.644Z,98182.03
2023-05-08T12:41:09.136Z,98171.75
2023-05-08T12:45:19.173Z,98170.19
2023-05-08T12:49:29.208Z,98173.22
2023-05-08T12:53:34.224Z,98161.53
2023-05-08T12:57:38.906Z,98155.84
2023-05-08T13:01:42.398Z,98160.41
2023-05-08T13:05:47.735Z,98152.31
2023-05-08T13:10:03.724Z,98150.41
2023-05-08T13:14:07.519Z,98152.63
2023-05-08T13:18:11.110Z,98149.50
2023-05-08T13:22:15.825Z,98144.13
2023-05-08T13:26:19.472Z,98134.66
2023-05-08T13:30:24.353Z,98127.34
2023-05-08T13:34:27.618Z,98126.97
2023-05-08T13:38:35.015Z,98122.91
2023-05-08T13:42:38.260Z,98124.59
2023-05-08T13:46:41.950Z,98129.97
2023-05-08T13:50:45.219Z,98118.22
2023-05-08T13:54:50.386Z,98120.41
2023-05-08T13:58:54.450Z,98126.88
2023-05-08T14:02:58.189Z,98123.69
2023-05-08T14:07:01.848Z,98133.91
2023-05-08T14:11:06.962Z,98130.44
2023-05-08T14:15:12.242Z,98122.06
2023-05-08T14:19:16.563Z,98127.50
2023-05-08T14:23:20.342Z,98126.56
2023-05-08T14:27:25.780Z,98120.56
2023-05-08T14:31:29.091Z,98119.91
2023-05-08T14:35:33.288Z,98117.84
2023-05-08T14:39:36.589Z,98114.34
2023-05-08T14:43:42.990Z,98118.97
2023-05-08T14:47:46.633Z,98113.41
2023-05-08T14:51:52.294Z,98112.31
2023-05-08T14:55:56.351Z,98100.16
2023-05-08T15:00:01.510Z,98103.09
2023-05-08T15:04:04.649Z,98110.50
2023-05-08T15:08:09.008Z,98108.47
2023-05-08T15:12:12.082Z,98111.34
2023-05-08T15:16:17.123Z,98117.06
2023-05-08T15:20:21.150Z,98102.22
2023-05-08T15:24:25.477Z,98099.63
2023-05-08T15:28:29.228Z,98113.09
2023-05-08T15:32:35.173Z,98107.41
2023-05-08T15:36:38.472Z,98105.22
2023-05-08T15:40:42.010Z,98107.91
2023-05-08T15:48:53.071Z,98103.47
2023-05-08T15:52:55.951Z,98103.94
2023-05-08T15:56:59.168Z,98103.94
2023-05-08T16:01:02.647Z,98096.63
2023-05-08T16:05:08.746Z,98103.97
2023-05-08T16:09:11.849Z,98098.69
2023-05-08T16:13:15.427Z,98089.75
2023-05-08T16:17:18.663Z,98092.97
2023-05-08T16:21:23.521Z,98088.94
2023-05-08T16:25:27.735Z,98088.53
2023-05-08T16:29:31.161Z,98085.28
2023-05-08T16:33:34.316Z,98093.00
2023-05-08T16:37:43.637Z,98093.38
2023-05-08T16:45:52.241Z,98101.88
2023-05-08T16:49:55.562Z,98102.22
2023-05-08T16:54:00.219Z,98096.72
2023-05-08T16:58:04.635Z,98098.88
2023-05-08T17:02:09.132Z,98102.06
2023-05-08T17:06:12.466Z,98115.19
2023-05-08T17:10:17.730Z,98112.25
2023-05-08T17:14:21.055Z,98112.38
2023-05-08T17:18:25.039Z,98122.84
2023-05-08T17:22:30.843Z,98115.84
2023-05-08T17:26:35.649Z,98117.78
2023-05-08T17:30:38.890Z,98118.47
2023-05-08T17:34:42.484Z,98118.09
2023-05-08T17:38:46.595Z,98125.03
2023-05-08T17:42:51.802Z,98125.34
2023-05-08T17:46:55.723Z,98126.03
2023-05-08T17:51:00.493Z,98130.78
2023-05-08T17:55:04.057Z,98133.88
2023-05-08T17:59:09.466Z,98138.63
2023-05-08T18:03:12.934Z,98132.66
2023-05-08T18:07:16.819Z,98150.09
2023-05-08T18:11:21.592Z,98151.97
2023-05-08T18:15:26.727Z,98158.47
2023-05-08T18:19:30.596Z,98165.63
2023-05-08T18:23:33.731Z,98163.28
2023-05-08T18:27:37.494Z,98160.09
2023-05-08T18:31:42.236Z,98162.78
2023-05-08T18:35:46.100Z,98166.50
2023-05-08T18:39:49.434Z,98175.63
2023-05-08T18:43:53.148Z,98169.44
2023-05-08T18:47:58.210Z,98175.03
2023-05-08T18:52:01.746Z,98166.41
2023-05-08T18:56:05.582Z,98165.63
2023-05-08T19:00:10.721Z,98167.78
2023-05-08T19:04:15.733Z,98181.59
2023-05-08T19:08:19.522Z,98180.97
2023-05-08T19:12:23.477Z,98186.75
2023-05-08T19:16:28.999Z,98196.13
2023-05-08T19:20:34.821Z,98192.22
2023-05-08T19:24:38.347Z,98185.22
2023-05-08T19:28:42.315Z,98186.41
2023-05-08T19:32:47.795Z,98184.31
2023-05-08T19:36:52.910Z,98177.94
2023-05-08T19:40:58.146Z,98178.00
2023-05-08T19:45:01.919Z,98177.06
2023-05-08T19:49:05.692Z,98177.72
2023-05-08T19:53:11.627Z,98186.94
2023-05-08T19:57:15.766Z,98185.81
2023-05-08T20:01:19.499Z,98176.00
2023-05-08T20:05:23.667Z,98175.03
2023-05-08T20:09:28.406Z,98175.72
2023-05-08T20:13:33.307Z,98177.53
2023-05-08T20:17:37.021Z,98169.84
2023-05-08T20:21:41.448Z,98182.13
2023-05-08T20:25:47.929Z,98176.91
2023-05-08T20:29:51.520Z,98181.34
2023-05-08T20:33:55.242Z,98175.16
2023-05-08T20:37:58.819Z,98174.97
2023-05-08T20:42:04.234Z,98178.13
2023-05-08T20:46:07.736Z,98189.25
2023-05-08T20:50:12.417Z,98183.84
2023-05-08T20:54:16.396Z,98180.06
2023-05-08T20:58:22.944Z,98175.50
2023-05-08T21:02:26.284Z,98169.28
2023-05-08T21:06:30.779Z,98168.97
2023-05-08T21:10:34.321Z,98178.94
2023-05-08T21:14:39.734Z,98176.47
2023-05-08T21:18:43.243Z,98171.72
2023-05-08T21:22:47.795Z,98173.53
2023-05-08T21:26:50.930Z,98173.69
2023-05-08T21:30:56.548Z,98164.88
2023-05-08T21:34:59.848Z,98160.63
2023-05-08T21:39:03.935Z,98169.25
2023-05-08T21:43:07.703Z,98155.22
2023-05-08T21:47:12.941Z,98155.69
2023-05-08T21:51:16.099Z,98157.34
2023-05-08T21:55:20.368Z,98157.00
2023-05-08T21:59:23.341Z,98155.06
2023-05-08T22:03:28.521Z,98155.06
2023-05-08T22:07:31.765Z,98154.22
2023-05-08T22:11:35.688Z,98162.25
2023-05-08T22:15:38.983Z,98163.06
2023-05-08T22:19:43.681Z,98169.13
2023-05-08T22:23:47.132Z,98166.84
2023-05-08T22:27:51.140Z,98161.25
2023-05-08T22:31:54.398Z,98166.00
2023-05-08T22:35:59.868Z,98152.09
2023-05-08T22:40:03.397Z,98159.56
2023-05-08T22:44:07.331Z,98160.22
2023-05-08T22:48:10.571Z,98162.00
2023-05-08T22:52:15.669Z,98159.06
2023-05-08T22:56:19.159Z,98169.34
2023-05-08T23:00:23.702Z,98156.25
2023-05-08T23:04:27.099Z,98168.97
2023-05-08T23:08:32.597Z,98157.50
2023-05-08T23:12:35.633Z,98155.72
2023-05-08T23:16:39.552Z,98164.66
2023-05-08T23:20:42.719Z,98155.97
2023-05-08T23:24:48.027Z,98153.03
2023-05-08T23:28:51.219Z,98154.50
2023-05-08T23:32:55.265Z,98148.06
2023-05-08T23:36:58.746Z,98148.72
2023-05-08T23:41:04.100Z,98147.72
2023-05-08T23:45:08.971Z,98140.66
2023-05-08T23:49:12.990Z,98133.44
2023-05-08T23:53:16.721Z,98139.94
2023-05-08T23:57:22.129Z,98130.81
